createdAt,value
2023-03-26T00:00:02.410Z,98927.00
2023-03-26T00:02:41.975Z,98927.43
2023-03-26T00:05:15.059Z,98928.72
2023-03-26T00:07:46.259Z,98924.73
2023-03-26T00:10:15.633Z,98922.63
2023-03-26T00:12:49.289Z,98918.98
2023-03-26T00:15:17.857Z,98916.89
2023-03-26T00:17:46.732Z,98914.05
2023-03-26T00:20:20.732Z,98912.35
2023-03-26T00:22:49.145Z,98910.67
2023-03-26T00:25:18.236Z,98908.08
2023-03-26T00:27:49.996Z,98906.25
2023-03-26T00:30:18.953Z,98908.73
2023-03-26T00:32:53.859Z,98908.20
2023-03-26T00:35:22.516Z,98908.27
2023-03-26T00:37:51.642Z,98899.91
2023-03-26T00:40:20.089Z,98901.61
2023-03-26T00:42:48.570Z,98899.33
2023-03-26T00:45:21.482Z,98903.79
2023-03-26T00:47:50.097Z,98904.29
2023-03-26T00:50:18.422Z,98900.21
2023-03-26T00:52:47.108Z,98904.46
2023-03-26T00:55:16.356Z,98904.06
2023-03-26T00:57:46.528Z,98904.59
2023-03-26T01:00:15.560Z,98901.17
2023-03-26T01:02:46.544Z,98897.20
2023-03-26T01:05:43.409Z,98894.48
2023-03-26T01:08:20.633Z,98894.23
2023-03-26T01:10:52.763Z,98891.46
2023-03-26T01:13:23.598Z,98887.77
2023-03-26T01:15:53.212Z,98887.77
2023-03-26T01:18:22.302Z,98888.71
2023-03-26T01:20:50.895Z,98883.77
2023-03-26T01:23:22.442Z,98884.95
2023-03-26T01:26:02.392Z,98883.82
2023-03-26T01:28:35.580Z,98889.13
2023-03-26T01:31:13.383Z,98892.13
2023-03-26T01:34:12.686Z,98890.54
2023-03-26T01:36:56.119Z,98888.73
2023-03-26T01:39:32.044Z,98888.55
2023-03-26T01:42:08.367Z,98890.45
2023-03-26T01:44:45.054Z,98890.05
2023-03-26T01:47:13.603Z,98892.60
2023-03-26T01:49:41.680Z,98889.69
2023-03-26T01:52:14.701Z,98883.06
2023-03-26T01:54:46.814Z,98880.71
2023-03-26T01:57:16.753Z,98880.86
2023-03-26T02:00:02.030Z,98877.77
2023-03-26T02:02:51.111Z,98886.58
2023-03-26T02:05:22.332Z,98883.48
2023-03-26T02:08:00.517Z,98884.27
2023-03-26T02:10:56.565Z,98882.14
2023-03-26T02:13:26.070Z,98882.61
2023-03-26T02:15:59.626Z,98889.73
2023-03-26T02:18:39.293Z,98908.05
2023-03-26T02:21:21.908Z,98914.50
2023-03-26T02:23:58.074Z,98922.20
2023-03-26T02:26:26.378Z,98909.73
2023-03-26T02:29:03.638Z,98917.69
2023-03-26T02:31:38.848Z,98924.29
2023-03-26T02:34:07.593Z,98930.74
2023-03-26T02:36:38.065Z,98927.65
2023-03-26T02:39:06.596Z,98926.36
2023-03-26T02:41:42.206Z,98930.07
2023-03-26T02:44:12.993Z,98926.16
2023-03-26T02:47:01.628Z,98929.80
2023-03-26T02:49:49.367Z,98938.94
2023-03-26T02:52:24.198Z,98946.13
2023-03-26T02:54:56.902Z,98948.21
2023-03-26T02:57:26.856Z,98953.33
2023-03-26T03:00:09.293Z,98957.77
2023-03-26T03:02:41.430Z,98965.69
2023-03-26T03:05:31.826Z,98975.52
2023-03-26T03:08:22.638Z,98985.98
2023-03-26T03:11:12.860Z,98983.66
2023-03-26T03:13:50.863Z,98985.99
2023-03-26T03:16:28.684Z,98991.53
2023-03-26T03:18:58.797Z,99000.70
2023-03-26T03:21:36.379Z,99011.12
2023-03-26T03:24:05.229Z,99023.36
2023-03-26T03:26:38.630Z,99025.73
2023-03-26T03:29:19.650Z,99026.77
2023-03-26T03:31:48.850Z,99034.32
2023-03-26T03:34:30.492Z,99038.64
2023-03-26T03:36:59.336Z,99039.92
2023-03-26T03:39:36.105Z,99049.19
2023-03-26T03:42:05.536Z,99052.55
2023-03-26T03:44:34.206Z,99060.23
2023-03-26T03:47:02.632Z,99058.13
2023-03-26T03:49:30.848Z,99060.27
2023-03-26T03:51:59.554Z,99063.30
2023-03-26T03:54:33.165Z,99058.60
2023-03-26T03:57:22.154Z,99061.90
2023-03-26T04:00:07.123Z,99067.80
2023-03-26T04:02:46.367Z,99064.70
2023-03-26T04:05:15.420Z,99068.49
2023-03-26T04:07:47.461Z,99071.92
2023-03-26T04:10:27.732Z,99072.21
2023-03-26T04:13:29.487Z,99077.43
2023-03-26T04:16:33.524Z,99079.45
2023-03-26T04:19:02.598Z,99079.14
2023-03-26T04:21:31.203Z,99086.01
2023-03-26T04:24:02.038Z,99088.64
2023-03-26T04:26:50.156Z,99093.18
2023-03-26T04:29:22.158Z,99100.09
2023-03-26T04:32:06.699Z,99107.42
2023-03-26T04:34:36.531Z,99111.23
2023-03-26T04:37:24.899Z,99111.92
2023-03-26T04:40:08.523Z,99119.24
2023-03-26T04:42:46.360Z,99124.62
2023-03-26T04:45:26.236Z,99126.97
2023-03-26T04:47:58.487Z,99124.05
2023-03-26T04:50:27.227Z,99123.07
2023-03-26T04:52:56.811Z,99121.23
2023-03-26T04:56:02.651Z,99124.60
2023-03-26T04:58:57.095Z,99128.03
2023-03-26T05:01:28.551Z,99128.30
2023-03-26T05:03:58.631Z,99132.09
2023-03-26T05:06:28.662Z,99132.40
2023-03-26T05:08:56.939Z,99135.48
2023-03-26T05:11:42.674Z,99135.25
2023-03-26T05:14:10.985Z,99146.23
2023-03-26T05:16:41.621Z,99151.80
2023-03-26T05:19:10.799Z,99156.38
2023-03-26T05:21:39.379Z,99157.46
2023-03-26T05:24:10.833Z,99160.96
2023-03-26T05:26:39.312Z,99160.79
2023-03-26T05:29:07.561Z,99161.72
2023-03-26T05:31:38.861Z,99162.34
2023-03-26T05:34:07.532Z,99166.63
2023-03-26T05:36:39.079Z,99167.42
2023-03-26T05:39:34.013Z,99168.52
2023-03-26T05:42:26.529Z,99166.31
2023-03-26T05:45:16.929Z,99172.81
2023-03-26T05:47:45.843Z,99186.63
2023-03-26T05:50:14.948Z,99185.86
2023-03-26T05:52:46.564Z,99195.02
2023-03-26T05:55:35.129Z,99193.77
2023-03-26T05:58:30.746Z,99190.98
2023-03-26T06:01:19.750Z,99194.52
2023-03-26T06:04:07.969Z,99193.02
2023-03-26T06:06:43.040Z,99195.55
2023-03-26T06:09:13.355Z,99195.45
2023-03-26T06:11:41.988Z,99195.27
2023-03-26T06:14:10.838Z,99196.52
2023-03-26T06:30:27.382Z,99192.28
2023-03-26T06:33:04.296Z,99196.14
2023-03-26T06:35:37.898Z,99194.76
2023-03-26T06:38:07.175Z,99199.52
2023-03-26T06:40:36.478Z,99200.18
2023-03-26T06:43:35.832Z,99200.52
2023-03-26T06:46:25.575Z,99200.21
2023-03-26T06:49:11.745Z,99202.96
2023-03-26T06:52:15.913Z,99201.08
2023-03-26T06:55:02.661Z,99202.02
2023-03-26T06:57:51.459Z,99204.70
2023-03-26T07:00:41.628Z,99207.41
2023-03-26T07:03:27.712Z,99205.50
2023-03-26T07:06:14.020Z,99205.48
2023-03-26T07:09:07.382Z,99204.94
2023-03-26T07:11:53.476Z,99204.84
2023-03-26T07:14:30.151Z,99204.05
2023-03-26T07:17:32.985Z,99196.43
2023-03-26T07:20:11.768Z,99193.55
2023-03-26T07:22:39.833Z,99193.05
2023-03-26T07:25:07.832Z,99192.55
2023-03-26T07:28:20.009Z,99190.61
2023-03-26T07:31:36.970Z,99195.46
2023-03-26T07:34:44.330Z,99198.36
2023-03-26T07:37:45.880Z,99202.39
2023-03-26T07:40:43.006Z,99203.71
2023-03-26T07:43:54.004Z,99205.48
2023-03-26T07:46:31.912Z,99212.33
2023-03-26T07:49:19.817Z,99221.02
2023-03-26T07:52:06.965Z,99219.40
2023-03-26T07:54:55.833Z,99221.13
2023-03-26T07:58:03.471Z,99219.00
2023-03-26T08:00:58.427Z,99222.52
2023-03-26T08:03:37.849Z,99224.05
2023-03-26T08:06:35.644Z,99226.59
2023-03-26T08:09:53.883Z,99230.52
2023-03-26T08:13:00.253Z,99229.20
2023-03-26T08:15:32.357Z,99231.38
2023-03-26T08:18:17.617Z,99231.61
2023-03-26T08:20:49.449Z,99226.80
2023-03-26T08:23:18.357Z,99231.11
2023-03-26T08:26:04.237Z,99234.91
2023-03-26T08:28:56.174Z,99234.79
2023-03-26T08:31:34.451Z,99230.57
2023-03-26T08:34:01.424Z,99233.89
2023-03-26T08:36:29.084Z,99235.96
2023-03-26T08:38:57.157Z,99233.56
2023-03-26T08:41:44.071Z,99230.34
2023-03-26T08:44:23.251Z,99231.53
2023-03-26T08:47:15.791Z,99223.84
2023-03-26T08:50:11.370Z,99217.05
2023-03-26T08:52:59.307Z,99217.71
2023-03-26T08:55:30.643Z,99213.15
2023-03-26T08:58:06.037Z,99211.02
2023-03-26T09:00:37.347Z,99217.73
2023-03-26T09:03:09.341Z,99221.09
2023-03-26T09:05:46.197Z,99219.30
2023-03-26T09:08:18.561Z,99219.17
2023-03-26T09:11:11.613Z,99222.23
2023-03-26T09:14:07.453Z,99226.52
2023-03-26T09:16:56.921Z,99222.23
2023-03-26T09:19:47.004Z,99224.75
2023-03-26T09:22:35.355Z,99220.66
2023-03-26T09:25:26.980Z,99217.44
2023-03-26T09:28:09.251Z,99215.10
2023-03-26T09:30:53.274Z,99212.69
2023-03-26T09:33:42.986Z,99207.13
2023-03-26T09:36:47.230Z,99205.58
2023-03-26T09:39:31.569Z,99199.42
2023-03-26T09:42:05.596Z,99201.15
2023-03-26T09:45:10.621Z,99199.29
2023-03-26T09:48:15.881Z,99202.58
2023-03-26T09:50:53.390Z,99199.60
2023-03-26T09:53:20.628Z,99201.27
2023-03-26T09:55:53.678Z,99200.79
2023-03-26T09:58:52.517Z,99198.65
2023-03-26T10:01:31.632Z,99190.23
2023-03-26T10:04:01.777Z,99186.54
2023-03-26T10:06:48.112Z,99187.52
2023-03-26T10:09:26.844Z,99191.29
2023-03-26T10:12:09.504Z,99198.85
2023-03-26T10:15:28.460Z,99202.88
2023-03-26T10:18:00.314Z,99204.07
2023-03-26T10:20:28.189Z,99206.09
2023-03-26T10:23:04.451Z,99211.62
2023-03-26T10:25:42.518Z,99218.06
2023-03-26T10:28:14.098Z,99218.78
2023-03-26T10:30:58.499Z,99214.86
2023-03-26T10:33:47.375Z,99209.91
2023-03-26T10:37:10.733Z,99211.61
2023-03-26T10:39:43.881Z,99210.62
2023-03-26T10:42:32.952Z,99209.01
2023-03-26T10:45:07.433Z,99209.96
2023-03-26T10:47:37.931Z,99206.09
2023-03-26T10:50:26.403Z,99211.30
2023-03-26T10:53:15.251Z,99209.62
2023-03-26T10:55:46.083Z,99207.67
2023-03-26T10:58:27.266Z,99205.77
2023-03-26T11:01:20.408Z,99204.34
2023-03-26T11:03:51.327Z,99206.15
2023-03-26T11:06:26.865Z,99205.11
2023-03-26T11:09:32.236Z,99207.29
2023-03-26T11:12:28.963Z,99204.09
2023-03-26T11:15:34.959Z,99201.20
2023-03-26T11:18:14.041Z,99198.13
2023-03-26T11:20:53.306Z,99196.39
2023-03-26T11:23:40.107Z,99196.79
2023-03-26T11:26:17.504Z,99196.05
2023-03-26T11:29:03.309Z,99197.64
2023-03-26T11:31:40.501Z,99202.04
2023-03-26T11:34:13.107Z,99202.39
2023-03-26T11:36:44.418Z,99199.04
2023-03-26T11:39:13.554Z,99196.02
2023-03-26T11:41:40.706Z,99198.16
2023-03-26T11:44:38.484Z,99196.52
2023-03-26T11:47:09.686Z,99193.27
2023-03-26T11:49:37.530Z,99191.25
2023-03-26T11:52:11.846Z,99194.65
2023-03-26T11:54:38.796Z,99192.13
2023-03-26T11:57:11.545Z,99192.72
2023-03-26T11:59:56.451Z,99189.64
2023-03-26T12:02:35.102Z,99181.29
2023-03-26T12:05:19.915Z,99176.83
2023-03-26T12:08:00.319Z,99178.92
2023-03-26T12:10:38.685Z,99178.46
2023-03-26T12:13:20.719Z,99176.29
2023-03-26T12:15:51.030Z,99173.50
2023-03-26T12:18:25.743Z,99173.95
2023-03-26T12:21:13.985Z,99171.31
2023-03-26T12:23:50.352Z,99170.44
2023-03-26T12:26:33.579Z,99168.15
2023-03-26T12:29:14.764Z,99165.20
2023-03-26T12:32:06.975Z,99165.52
2023-03-26T12:34:37.653Z,99161.90
2023-03-26T12:37:06.347Z,99154.80
2023-03-26T12:40:09.700Z,99150.52
2023-03-26T12:44:51.594Z,99157.31
2023-03-26T12:45:22.985Z,99154.83
2023-03-26T12:47:59.881Z,99149.12
2023-03-26T12:50:56.608Z,99146.77
2023-03-26T12:53:33.185Z,99150.38
2023-03-26T12:56:35.790Z,99144.41
2023-03-26T12:59:42.313Z,99152.44
2023-03-26T13:02:38.106Z,99150.42
2023-03-26T13:05:24.376Z,99147.14
2023-03-26T13:08:14.320Z,99147.27
2023-03-26T13:11:04.819Z,99148.86
2023-03-26T13:13:52.461Z,99148.36
2023-03-26T13:16:37.036Z,99154.75
2023-03-26T13:19:15.657Z,99157.52
2023-03-26T13:22:14.320Z,99162.05
2023-03-26T13:25:21.934Z,99157.75
2023-03-26T13:27:49.488Z,99155.91
2023-03-26T13:31:02.693Z,99157.44
2023-03-26T13:33:32.943Z,99160.86
2023-03-26T13:36:41.334Z,99159.02
2023-03-26T13:39:23.256Z,99158.64
2023-03-26T13:42:21.862Z,99160.29
2023-03-26T13:45:11.818Z,99159.77
2023-03-26T13:47:42.632Z,99162.14
2023-03-26T13:50:26.505Z,99157.58
2023-03-26T13:53:06.209Z,99153.37
2023-03-26T13:55:37.725Z,99145.32
2023-03-26T13:58:08.230Z,99144.73
2023-03-26T14:00:59.721Z,99141.33
2023-03-26T14:03:46.385Z,99141.98
2023-03-26T14:06:22.527Z,99146.66
2023-03-26T14:09:31.472Z,99148.48
2023-03-26T14:12:21.491Z,99154.98
2023-03-26T14:15:03.951Z,99151.28
2023-03-26T14:17:47.913Z,99153.30
2023-03-26T14:20:33.596Z,99147.91
2023-03-26T14:23:19.768Z,99148.13
2023-03-26T14:25:56.249Z,99146.06
2023-03-26T14:28:32.402Z,99145.42
2023-03-26T14:31:10.831Z,99148.80
2023-03-26T14:33:40.835Z,99143.64
2023-03-26T14:36:21.093Z,99140.41
2023-03-26T14:39:24.493Z,99137.29
2023-03-26T14:42:20.072Z,99134.53
2023-03-26T14:45:20.646Z,99132.07
2023-03-26T14:48:01.215Z,99138.48
2023-03-26T14:50:50.991Z,99139.25
2023-03-26T14:53:32.894Z,99138.11
2023-03-26T14:56:25.534Z,99145.75
2023-03-26T14:59:17.682Z,99146.10
2023-03-26T15:01:56.921Z,99151.16
2023-03-26T15:04:30.916Z,99159.52
2023-03-26T15:07:40.670Z,99159.36
2023-03-26T15:10:34.445Z,99153.02
2023-03-26T15:13:10.076Z,99151.41
2023-03-26T15:15:58.440Z,99145.21
2023-03-26T15:18:33.884Z,99140.96
2023-03-26T15:21:13.533Z,99140.27
2023-03-26T15:24:04.228Z,99142.92
2023-03-26T15:26:31.173Z,99141.36
2023-03-26T15:29:21.262Z,99142.41
2023-03-26T15:32:08.637Z,99135.24
2023-03-26T15:35:06.660Z,99130.30
2023-03-26T15:37:48.559Z,99130.59
2023-03-26T15:40:28.714Z,99128.93
2023-03-26T15:43:12.492Z,99130.69
2023-03-26T15:45:48.642Z,99131.16
2023-03-26T15:48:29.484Z,99133.13
2023-03-26T15:51:46.261Z,99130.19
2023-03-26T15:54:35.562Z,99136.12
2023-03-26T15:57:16.195Z,99140.08
2023-03-26T16:00:14.727Z,99138.39
2023-03-26T16:02:53.305Z,99141.30
2023-03-26T16:05:32.547Z,99144.22
2023-03-26T16:08:18.154Z,99146.23
2023-03-26T16:10:59.720Z,99150.70
2023-03-26T16:13:30.279Z,99154.80
2023-03-26T16:16:03.945Z,99158.05
2023-03-26T16:18:54.986Z,99161.50
2023-03-26T16:21:33.875Z,99170.55
2023-03-26T16:24:07.518Z,99173.71
2023-03-26T16:26:47.470Z,99182.08
2023-03-26T16:29:14.741Z,99184.80
2023-03-26T16:32:07.055Z,99190.86
2023-03-26T16:34:47.625Z,99186.53
2023-03-26T16:37:35.039Z,99188.91
2023-03-26T16:40:17.766Z,99191.88
2023-03-26T16:43:20.148Z,99199.71
2023-03-26T16:45:51.902Z,99203.59
2023-03-26T16:48:40.971Z,99210.58
2023-03-26T16:51:23.586Z,99213.14
2023-03-26T16:53:58.391Z,99214.71
2023-03-26T16:56:28.944Z,99215.77
2023-03-26T16:59:01.421Z,99218.75
2023-03-26T17:01:49.398Z,99217.31
2023-03-26T17:04:23.133Z,99222.20
2023-03-26T17:06:56.148Z,99223.19
2023-03-26T17:09:51.215Z,99228.30
2023-03-26T17:12:36.462Z,99230.48
2023-03-26T17:15:40.549Z,99233.61
2023-03-26T17:18:20.381Z,99234.86
2023-03-26T17:21:46.237Z,99235.92
2023-03-26T17:24:55.734Z,99240.79
2023-03-26T17:28:05.721Z,99248.36
2023-03-26T17:30:45.622Z,99251.65
2023-03-26T17:33:27.253Z,99247.42
2023-03-26T17:36:12.594Z,99248.86
2023-03-26T17:38:47.079Z,99250.02
2023-03-26T17:41:17.858Z,99254.16
2023-03-26T17:43:51.720Z,99250.30
2023-03-26T17:46:41.835Z,99248.85
2023-03-26T17:49:11.910Z,99243.30
2023-03-26T17:52:14.792Z,99243.52
2023-03-26T17:54:49.329Z,99242.23
2023-03-26T17:57:25.780Z,99240.84
2023-03-26T17:59:56.376Z,99239.30
2023-03-26T18:02:38.900Z,99239.99
2023-03-26T18:05:07.933Z,99243.23
2023-03-26T18:07:45.529Z,99241.09
2023-03-26T18:10:43.665Z,99240.86
2023-03-26T18:13:48.259Z,99241.45
2023-03-26T18:16:15.613Z,99242.64
2023-03-26T18:19:01.812Z,99244.83
2023-03-26T18:21:39.263Z,99241.04
2023-03-26T18:24:07.225Z,99244.42
2023-03-26T18:26:39.597Z,99243.79
2023-03-26T18:29:10.042Z,99252.11
2023-03-26T18:31:42.942Z,99251.52
2023-03-26T18:37:38.746Z,99255.06
2023-03-26T18:40:12.014Z,99255.41
2023-03-26T18:42:41.660Z,99256.58
2023-03-26T18:45:24.899Z,99260.81
2023-03-26T18:47:54.281Z,99264.29
2023-03-26T18:50:28.217Z,99267.95
2023-03-26T18:52:58.278Z,99262.85
2023-03-26T18:55:28.421Z,99264.26
2023-03-26T18:57:57.208Z,99267.73
2023-03-26T19:00:27.932Z,99270.19
2023-03-26T19:03:03.941Z,99268.96
2023-03-26T19:05:33.800Z,99268.00
2023-03-26T19:08:05.460Z,99271.38
2023-03-26T19:10:35.491Z,99270.82
2023-03-26T19:13:04.255Z,99264.71
2023-03-26T19:15:33.442Z,99260.96
2023-03-26T19:18:09.994Z,99260.77
2023-03-26T19:20:59.540Z,99264.95
2023-03-26T19:23:38.865Z,99263.42
2023-03-26T19:26:09.364Z,99262.11
2023-03-26T19:28:49.314Z,99265.72
2023-03-26T19:31:23.186Z,99264.82
2023-03-26T19:33:59.254Z,99265.79
2023-03-26T19:36:31.525Z,99262.27
2023-03-26T19:38:59.649Z,99264.55
2023-03-26T19:41:32.962Z,99258.90
2023-03-26T19:44:03.121Z,99255.58
2023-03-26T19:46:33.804Z,99252.92
2023-03-26T19:49:32.446Z,99252.98
2023-03-26T19:52:05.535Z,99250.96
2023-03-26T19:55:04.921Z,99253.69
2023-03-26T19:57:33.193Z,99253.15
2023-03-26T20:00:13.339Z,99249.55
2023-03-26T20:02:45.897Z,99249.92
2023-03-26T20:05:29.509Z,99249.66
2023-03-26T20:07:59.864Z,99250.69
2023-03-26T20:10:28.070Z,99249.35
2023-03-26T20:12:57.065Z,99248.23
2023-03-26T20:15:27.296Z,99249.65
2023-03-26T20:17:56.441Z,99245.04
2023-03-26T20:20:25.635Z,99242.45
2023-03-26T20:22:54.367Z,99245.46
2023-03-26T20:25:35.044Z,99244.79
2023-03-26T20:28:04.805Z,99244.34
2023-03-26T20:30:37.816Z,99242.10
2023-03-26T20:33:16.540Z,99244.89
2023-03-26T20:35:45.396Z,99248.79
2023-03-26T20:38:14.030Z,99248.16
2023-03-26T20:40:42.611Z,99251.09
2023-03-26T20:43:12.375Z,99252.13
2023-03-26T20:45:40.691Z,99254.04
2023-03-26T20:48:10.716Z,99253.77
2023-03-26T20:50:50.267Z,99251.10
2023-03-26T20:53:21.220Z,99250.33
2023-03-26T20:55:51.719Z,99248.73
2023-03-26T20:58:31.907Z,99250.93
2023-03-26T21:03:55.173Z,99252.90
2023-03-26T21:19:35.740Z,99253.10
2023-03-26T21:22:10.769Z,99258.42
2023-03-26T21:25:03.187Z,99259.09
2023-03-26T21:27:46.669Z,99267.40
2023-03-26T21:30:16.764Z,99271.70
2023-03-26T21:32:46.521Z,99270.68
2023-03-26T21:35:20.002Z,99272.53
2023-03-26T21:37:49.125Z,99271.45
2023-03-26T21:40:18.451Z,99273.29
2023-03-26T21:42:50.291Z,99273.21
2023-03-26T21:45:19.198Z,99274.82
2023-03-26T21:47:52.489Z,99271.30
2023-03-26T21:50:23.631Z,99268.08
2023-03-26T21:52:52.243Z,99268.59
2023-03-26T21:55:22.285Z,99265.85
2023-03-26T21:58:18.635Z,99262.13
2023-03-26T22:01:11.588Z,99261.40
2023-03-26T22:04:02.135Z,99260.47
2023-03-26T22:06:54.387Z,99265.27
2023-03-26T22:09:35.515Z,99267.33
2023-03-26T22:12:06.618Z,99266.21
2023-03-26T22:14:35.882Z,99264.18
2023-03-26T22:17:04.461Z,99264.69
2023-03-26T22:19:34.717Z,99263.46
2023-03-26T22:22:04.355Z,99266.80
2023-03-26T22:24:34.464Z,99265.42
2023-03-26T22:27:03.813Z,99264.74
2023-03-26T22:29:32.911Z,99263.84
2023-03-26T22:32:00.971Z,99265.29
2023-03-26T22:34:29.413Z,99262.70
2023-03-26T22:36:57.444Z,99264.94
2023-03-26T22:39:43.655Z,99261.19
2023-03-26T22:42:11.819Z,99257.16
2023-03-26T22:44:40.093Z,99253.71
2023-03-26T22:47:09.996Z,99254.80
2023-03-26T22:49:38.436Z,99255.38
2023-03-26T22:52:13.820Z,99255.79
2023-03-26T22:54:42.728Z,99254.44
2023-03-26T22:57:11.237Z,99252.17
2023-03-26T22:59:41.003Z,99253.14
2023-03-26T23:02:11.084Z,99247.84
2023-03-26T23:04:39.322Z,99245.83
2023-03-26T23:07:07.787Z,99239.75
2023-03-26T23:09:36.913Z,99240.77
2023-03-26T23:12:10.069Z,99238.98
2023-03-26T23:14:38.860Z,99237.75
2023-03-26T23:17:07.770Z,99239.67
2023-03-26T23:19:43.349Z,99240.84
2023-03-26T23:22:11.674Z,99238.75
2023-03-26T23:24:40.075Z,99234.56
2023-03-26T23:27:09.566Z,99239.10
2023-03-26T23:29:38.151Z,99243.98
2023-03-26T23:32:23.476Z,99246.08
2023-03-26T23:34:53.114Z,99245.82
2023-03-26T23:37:25.717Z,99243.34
2023-03-26T23:39:54.193Z,99245.86
2023-03-26T23:42:29.211Z,99245.39
2023-03-26T23:44:58.019Z,99244.36
2023-03-26T23:47:27.252Z,99239.45
2023-03-26T23:49:59.588Z,99238.06
2023-03-26T23:52:27.863Z,99239.58
2023-03-26T23:54:59.071Z,99238.55
2023-03-26T23:57:30.716Z,99237.59
2023-03-26T23:59:59.144Z,99235.54
